createdAt,value
2023-04-06T00:02:21.295Z,11.53
2023-04-06T00:04:49.140Z,12.47
2023-04-06T00:07:16.971Z,11.27
2023-04-06T00:09:46.135Z,11.27
2023-04-06T00:12:14.033Z,9.67
2023-04-06T00:14:41.809Z,13.97
2023-04-06T00:17:09.708Z,11.13
2023-04-06T00:19:37.908Z,11.03
2023-04-06T00:22:05.950Z,11.60
2023-04-06T00:24:33.787Z,10.53
2023-04-06T00:27:03.078Z,10.87
2023-04-06T00:29:30.872Z,12.27
2023-04-06T00:31:58.672Z,10.97
2023-04-06T00:34:26.643Z,12.13
2023-04-06T00:36:54.427Z,9.83
2023-04-06T00:39:22.428Z,12.50
2023-04-06T00:41:53.526Z,12.13
2023-04-06T00:44:23.243Z,10.53
2023-04-06T00:46:51.136Z,11.23
2023-04-06T00:49:19.406Z,11.70
2023-04-06T00:51:47.502Z,11.10
2023-04-06T00:54:16.832Z,10.93
2023-04-06T00:56:45.446Z,10.90
2023-04-06T00:59:13.686Z,11.30
2023-04-06T01:01:43.421Z,11.23
2023-04-06T01:04:26.093Z,12.47
2023-04-06T01:06:55.880Z,12.20
2023-04-06T01:09:31.688Z,12.45
2023-04-06T01:12:04.451Z,11.20
2023-04-06T01:14:34.269Z,11.10
2023-04-06T01:17:05.430Z,13.63
2023-04-06T01:19:35.123Z,11.97
2023-04-06T01:22:03.642Z,12.03
2023-04-06T01:24:33.654Z,11.40
2023-04-06T01:27:04.579Z,14.20
2023-04-06T01:29:50.974Z,11.20
2023-04-06T01:32:33.415Z,14.17
2023-04-06T01:35:01.979Z,11.67
2023-04-06T01:37:33.222Z,12.40
2023-04-06T01:40:08.992Z,13.23
2023-04-06T01:42:44.538Z,14.20
2023-04-06T01:45:17.450Z,14.10
2023-04-06T01:47:46.486Z,14.03
2023-04-06T01:50:14.565Z,13.93
2023-04-06T01:52:46.650Z,12.60
2023-04-06T01:55:17.107Z,14.27
2023-04-06T01:58:17.494Z,12.63
2023-04-06T02:00:45.497Z,13.73
2023-04-06T02:03:15.628Z,11.93
2023-04-06T02:05:44.504Z,13.17
2023-04-06T02:08:36.423Z,13.53
2023-04-06T02:11:06.309Z,12.90
2023-04-06T02:13:44.446Z,15.27
2023-04-06T02:16:13.333Z,14.63
2023-04-06T02:18:41.411Z,12.17
2023-04-06T02:21:09.381Z,13.73
2023-04-06T02:23:38.780Z,13.90
2023-04-06T02:26:08.078Z,12.80
2023-04-06T02:28:36.164Z,14.47
2023-04-06T02:31:04.122Z,13.20
2023-04-06T02:33:32.303Z,12.80
2023-04-06T02:36:01.236Z,13.53
2023-04-06T02:38:30.489Z,11.03
2023-04-06T02:41:00.814Z,12.90
2023-04-06T02:43:32.278Z,14.13
2023-04-06T02:46:08.187Z,14.70
2023-04-06T02:48:39.704Z,12.57
2023-04-06T02:51:07.851Z,16.43
2023-04-06T02:53:36.498Z,14.10
2023-04-06T02:56:09.702Z,16.13
2023-04-06T02:58:53.152Z,13.10
2023-04-06T03:01:27.320Z,14.47
2023-04-06T03:03:59.877Z,16.47
2023-04-06T03:06:29.874Z,14.83
2023-04-06T03:09:03.507Z,15.43
2023-04-06T03:11:33.422Z,15.17
2023-04-06T03:14:02.723Z,13.07
2023-04-06T03:16:30.700Z,14.00
2023-04-06T03:19:02.630Z,13.83
2023-04-06T03:21:33.878Z,14.00
2023-04-06T03:24:02.147Z,14.90
2023-04-06T03:26:29.921Z,14.33
2023-04-06T03:29:02.908Z,16.83
2023-04-06T03:31:33.207Z,14.47
2023-04-06T03:34:07.519Z,15.77
2023-04-06T03:36:37.639Z,16.30
2023-04-06T03:39:06.532Z,16.30
2023-04-06T03:41:37.527Z,15.10
2023-04-06T03:44:27.096Z,14.30
2023-04-06T03:46:55.438Z,15.67
2023-04-06T03:49:24.083Z,16.83
2023-04-06T03:51:54.494Z,17.57
2023-04-06T03:54:22.650Z,14.30
2023-04-06T03:56:50.793Z,15.03
2023-04-06T03:59:19.521Z,15.57
2023-04-06T04:01:48.870Z,15.87
2023-04-06T04:04:16.810Z,15.77
2023-04-06T04:06:44.873Z,19.33
2023-04-06T04:09:12.750Z,17.10
2023-04-06T04:11:40.799Z,16.97
2023-04-06T04:14:08.857Z,15.63
2023-04-06T04:16:36.976Z,15.23
2023-04-06T04:19:06.456Z,16.30
2023-04-06T04:21:43.025Z,16.47
2023-04-06T04:24:11.716Z,16.97
2023-04-06T04:26:41.114Z,18.67
2023-04-06T04:29:09.338Z,17.87
2023-04-06T04:31:38.941Z,17.63
2023-04-06T04:34:16.006Z,17.95
2023-04-06T04:36:44.081Z,21.20
2023-04-06T04:39:16.894Z,18.63
2023-04-06T04:41:50.656Z,18.43
2023-04-06T04:44:18.626Z,18.87
2023-04-06T04:46:46.610Z,21.30
2023-04-06T04:49:17.887Z,20.60
2023-04-06T04:51:45.956Z,18.17
2023-04-06T04:54:18.997Z,16.80
2023-04-06T04:56:47.308Z,17.83
2023-04-06T04:59:25.740Z,16.80
2023-04-06T05:02:00.398Z,17.77
2023-04-06T05:04:39.326Z,17.30
2023-04-06T05:07:10.729Z,16.27
2023-04-06T05:09:41.505Z,17.23
2023-04-06T05:12:10.043Z,18.20
2023-04-06T05:14:47.035Z,16.50
2023-04-06T05:17:18.051Z,17.00
2023-04-06T05:19:47.792Z,20.30
2023-04-06T05:22:20.959Z,15.57
2023-04-06T05:24:56.722Z,16.07
2023-04-06T05:27:24.908Z,18.17
2023-04-06T05:29:55.025Z,15.20
2023-04-06T05:32:26.427Z,17.00
2023-04-06T05:34:57.215Z,13.97
2023-04-06T05:37:25.513Z,15.93
2023-04-06T05:39:53.829Z,16.17
2023-04-06T05:42:23.477Z,15.00
2023-04-06T05:44:56.371Z,16.43
2023-04-06T05:47:24.664Z,15.77
2023-04-06T05:50:06.136Z,14.70
2023-04-06T05:52:37.694Z,16.47
2023-04-06T05:55:07.222Z,15.80
2023-04-06T05:57:36.741Z,15.73
2023-04-06T06:00:09.805Z,14.70
2023-04-06T06:02:41.010Z,16.65
2023-04-06T06:05:13.659Z,15.37
2023-04-06T06:07:43.618Z,15.20
2023-04-06T06:10:13.006Z,15.43
2023-04-06T06:12:41.353Z,15.70
2023-04-06T06:15:10.838Z,15.43
2023-04-06T06:17:43.947Z,15.47
2023-04-06T06:20:14.955Z,17.10
2023-04-06T06:22:44.646Z,17.00
2023-04-06T06:25:18.032Z,14.40
2023-04-06T06:27:48.277Z,15.67
2023-04-06T06:30:22.361Z,16.20
2023-04-06T06:32:51.639Z,15.20
2023-04-06T06:35:22.914Z,14.53
2023-04-06T06:37:51.267Z,17.07
2023-04-06T06:40:25.274Z,15.67
2023-04-06T06:42:55.034Z,12.50
2023-04-06T06:45:31.631Z,13.27
2023-04-06T06:47:59.867Z,16.73
2023-04-06T06:50:29.397Z,14.60
2023-04-06T06:52:57.406Z,15.23
2023-04-06T06:55:26.479Z,15.40
2023-04-06T06:57:54.674Z,15.10
2023-04-06T07:00:23.440Z,15.33
2023-04-06T07:02:53.030Z,14.57
2023-04-06T07:05:28.198Z,14.53
2023-04-06T07:08:00.163Z,15.00
2023-04-06T07:10:28.367Z,14.93
2023-04-06T07:12:56.488Z,13.30
2023-04-06T07:15:24.778Z,12.93
2023-04-06T07:17:55.550Z,14.23
2023-04-06T07:20:24.292Z,13.27
2023-04-06T07:22:52.285Z,14.70
2023-04-06T07:25:23.682Z,15.70
2023-04-06T07:27:53.730Z,14.57
2023-04-06T07:30:22.936Z,16.40
2023-04-06T07:32:51.007Z,12.57
2023-04-06T07:35:19.344Z,13.50
2023-04-06T07:37:47.562Z,13.87
2023-04-06T07:40:16.059Z,13.50
2023-04-06T07:42:46.586Z,13.87
2023-04-06T07:45:16.490Z,14.47
2023-04-06T07:47:45.314Z,15.23
2023-04-06T07:50:13.770Z,16.03
2023-04-06T07:52:41.743Z,13.97
2023-04-06T07:55:18.474Z,12.27
2023-04-06T07:57:47.812Z,11.80
2023-04-06T08:00:16.607Z,15.07
2023-04-06T08:02:44.834Z,14.20
2023-04-06T08:05:12.960Z,13.90
2023-04-06T08:07:42.407Z,19.17
2023-04-06T08:10:11.384Z,13.30
2023-04-06T08:12:39.318Z,14.60
2023-04-06T08:15:09.474Z,12.93
2023-04-06T08:17:37.500Z,10.87
2023-04-06T08:20:06.721Z,12.50
2023-04-06T08:22:34.832Z,12.40
2023-04-06T08:25:02.771Z,12.77
2023-04-06T08:27:30.756Z,12.60
2023-04-06T08:29:58.707Z,11.00
2023-04-06T08:32:28.037Z,12.93
2023-04-06T08:34:56.507Z,11.30
2023-04-06T08:37:24.673Z,13.38
2023-04-06T08:39:52.743Z,12.73
2023-04-06T08:42:27.264Z,11.68
2023-04-06T08:44:56.731Z,13.40
2023-04-06T08:47:25.094Z,13.60
2023-04-06T08:49:55.840Z,14.25
2023-04-06T08:52:26.296Z,13.20
2023-04-06T08:54:54.278Z,12.52
2023-04-06T08:57:22.604Z,13.52
2023-04-06T08:59:52.066Z,13.98
2023-04-06T09:02:21.360Z,14.18
2023-04-06T09:04:55.435Z,12.43
2023-04-06T09:07:24.841Z,12.73
2023-04-06T09:09:52.902Z,12.68
2023-04-06T09:12:26.069Z,13.40
2023-04-06T09:14:55.272Z,15.63
2023-04-06T09:17:24.691Z,14.07
2023-04-06T09:19:52.976Z,14.38
2023-04-06T09:22:22.856Z,12.65
2023-04-06T09:24:52.536Z,14.70
2023-04-06T09:27:31.700Z,14.55
2023-04-06T09:30:06.984Z,13.07
2023-04-06T09:32:48.084Z,14.23
2023-04-06T09:35:16.844Z,13.25
2023-04-06T09:37:48.462Z,14.00
2023-04-06T09:40:18.521Z,14.25
2023-04-06T09:42:48.213Z,13.05
2023-04-06T09:45:16.426Z,13.88
2023-04-06T09:47:46.739Z,16.80
2023-04-06T09:50:17.307Z,14.15
2023-04-06T09:52:50.997Z,14.68
2023-04-06T09:55:31.541Z,15.15
2023-04-06T09:58:07.207Z,17.17
2023-04-06T10:00:48.633Z,17.05
2023-04-06T10:03:32.662Z,19.88
2023-04-06T10:06:06.391Z,16.80
2023-04-06T10:08:41.435Z,16.23
2023-04-06T10:11:11.565Z,16.83
2023-04-06T10:13:39.603Z,17.10
2023-04-06T10:16:08.993Z,18.15
2023-04-06T10:18:42.818Z,17.38
2023-04-06T10:21:15.299Z,18.40
2023-04-06T10:23:50.042Z,18.75
2023-04-06T10:26:22.054Z,17.00
2023-04-06T10:28:51.520Z,17.35
2023-04-06T10:31:27.135Z,16.05
2023-04-06T10:33:57.052Z,17.90
2023-04-06T10:36:29.257Z,19.02
2023-04-06T10:39:01.325Z,19.83
2023-04-06T10:41:35.199Z,17.63
2023-04-06T10:44:04.105Z,18.08
2023-04-06T10:46:34.480Z,17.10
2023-04-06T10:49:14.916Z,17.27
2023-04-06T10:51:42.882Z,20.35
2023-04-06T10:54:13.616Z,18.08
2023-04-06T10:56:41.669Z,17.33
2023-04-06T10:59:09.667Z,21.50
2023-04-06T11:01:46.381Z,21.27
2023-04-06T11:04:18.992Z,20.65
2023-04-06T11:06:49.593Z,18.63
2023-04-06T11:09:30.226Z,19.50
2023-04-06T11:11:58.398Z,17.55
2023-04-06T11:14:27.475Z,19.00
2023-04-06T11:16:56.159Z,21.48
2023-04-06T11:19:24.445Z,19.70
2023-04-06T11:21:52.576Z,17.80
2023-04-06T11:24:23.087Z,18.45
2023-04-06T11:26:55.955Z,20.77
2023-04-06T11:29:27.294Z,20.58
2023-04-06T11:32:00.773Z,20.10
2023-04-06T11:34:31.339Z,19.38
2023-04-06T11:37:02.864Z,20.08
2023-04-06T11:39:31.277Z,18.83
2023-04-06T11:42:07.610Z,19.15
2023-04-06T11:44:43.504Z,18.75
2023-04-06T11:47:13.082Z,19.48
2023-04-06T11:49:43.040Z,20.27
2023-04-06T11:52:19.587Z,17.95
2023-04-06T11:54:49.392Z,20.13
2023-04-06T11:57:20.448Z,22.90
2023-04-06T11:59:48.575Z,21.48
2023-04-06T12:02:16.716Z,21.63
2023-04-06T12:04:45.352Z,19.45
2023-04-06T12:07:13.536Z,19.52
2023-04-06T12:09:41.605Z,20.08
2023-04-06T12:12:09.602Z,19.88
2023-04-06T12:14:38.972Z,18.65
2023-04-06T12:17:06.969Z,18.85
2023-04-06T12:19:34.908Z,19.63
2023-04-06T12:22:02.920Z,17.73
2023-04-06T12:24:30.987Z,18.08
2023-04-06T12:27:06.923Z,19.58
2023-04-06T12:29:39.588Z,17.48
2023-04-06T12:32:07.575Z,17.63
2023-04-06T12:34:35.707Z,17.02
2023-04-06T12:37:03.657Z,17.13
2023-04-06T12:39:31.813Z,17.75
2023-04-06T12:41:59.777Z,18.13
2023-04-06T12:44:27.747Z,18.15
2023-04-06T12:46:57.188Z,19.00
2023-04-06T12:49:25.404Z,18.60
2023-04-06T12:51:53.352Z,18.25
2023-04-06T12:54:21.296Z,18.17
2023-04-06T12:56:49.386Z,19.92
2023-04-06T12:59:17.536Z,23.92
2023-04-06T13:01:45.680Z,21.55
2023-04-06T13:04:15.081Z,18.27
2023-04-06T13:06:43.057Z,18.75
2023-04-06T13:09:10.960Z,19.00
2023-04-06T13:11:39.835Z,18.42
2023-04-06T13:14:07.793Z,17.20
2023-04-06T13:16:36.162Z,16.77
2023-04-06T13:19:04.281Z,20.23
2023-04-06T13:21:34.267Z,31.95
2023-04-06T13:24:02.455Z,20.00
2023-04-06T13:26:30.642Z,18.60
2023-04-06T13:29:00.433Z,26.40
2023-04-06T13:31:28.291Z,23.08
2023-04-06T13:33:56.096Z,23.58
2023-04-06T13:36:24.142Z,22.25
2023-04-06T13:38:53.308Z,22.40
2023-04-06T13:41:22.325Z,21.85
2023-04-06T13:43:50.816Z,22.38
2023-04-06T13:46:19.410Z,19.00
2023-04-06T13:48:48.097Z,23.15
2023-04-06T13:51:16.416Z,21.88
2023-04-06T13:53:44.210Z,21.63
2023-04-06T13:56:13.561Z,22.27
2023-04-06T13:58:41.642Z,22.73
2023-04-06T14:01:11.338Z,19.30
2023-04-06T14:03:42.809Z,21.92
2023-04-06T14:06:20.839Z,20.40
2023-04-06T14:08:55.609Z,22.65
2023-04-06T14:11:24.946Z,25.67
2023-04-06T14:13:53.227Z,23.08
2023-04-06T14:16:22.366Z,23.27
2023-04-06T14:18:50.430Z,24.40
2023-04-06T14:21:19.464Z,27.05
2023-04-06T14:23:47.698Z,25.30
2023-04-06T14:26:16.182Z,25.58
2023-04-06T14:28:47.346Z,24.00
2023-04-06T14:31:17.047Z,20.50
2023-04-06T14:33:46.105Z,19.05
2023-04-06T14:36:14.234Z,20.88
2023-04-06T14:38:44.067Z,21.02
2023-04-06T14:41:17.016Z,21.63
2023-04-06T14:43:47.350Z,21.40
2023-04-06T14:46:19.014Z,22.83
2023-04-06T14:48:47.954Z,20.92
2023-04-06T14:51:15.857Z,20.60
2023-04-06T14:53:44.304Z,18.63
2023-04-06T14:56:12.536Z,17.13
2023-04-06T14:58:40.283Z,17.05
2023-04-06T15:01:09.532Z,20.85
2023-04-06T15:03:37.561Z,16.90
2023-04-06T15:06:06.470Z,17.55
2023-04-06T15:08:35.277Z,18.83
2023-04-06T15:11:03.335Z,18.42
2023-04-06T15:13:31.250Z,16.73
2023-04-06T15:16:01.619Z,15.57
2023-04-06T15:18:31.300Z,19.15
2023-04-06T15:20:59.141Z,15.70
2023-04-06T15:23:30.522Z,15.77
2023-04-06T15:25:58.839Z,17.10
2023-04-06T15:28:26.910Z,15.35
2023-04-06T15:30:55.645Z,13.82
2023-04-06T15:33:23.406Z,16.20
2023-04-06T15:35:52.661Z,14.50
2023-04-06T15:38:21.940Z,13.50
2023-04-06T15:40:50.284Z,13.18
2023-04-06T15:43:18.141Z,13.95
2023-04-06T15:45:45.968Z,15.37
2023-04-06T15:48:13.815Z,16.60
2023-04-06T15:50:41.653Z,14.70
2023-04-06T15:53:12.904Z,14.52
2023-04-06T15:55:40.985Z,17.63
2023-04-06T15:58:08.778Z,15.80
2023-04-06T16:00:36.664Z,21.30
2023-04-06T16:03:04.714Z,17.45
2023-04-06T16:05:34.660Z,19.55
2023-04-06T16:08:02.957Z,21.42
2023-04-06T16:10:33.114Z,22.40
2023-04-06T16:13:01.443Z,19.47
2023-04-06T16:15:29.258Z,20.70
2023-04-06T16:17:57.131Z,17.10
2023-04-06T16:20:25.080Z,18.83
2023-04-06T16:22:53.018Z,19.67
2023-04-06T16:25:21.031Z,20.70
2023-04-06T16:27:50.201Z,17.73
2023-04-06T16:30:18.625Z,18.23
2023-04-06T16:32:47.191Z,17.13
2023-04-06T16:35:15.059Z,16.47
2023-04-06T16:37:42.835Z,16.47
2023-04-06T16:40:11.240Z,16.90
2023-04-06T16:42:39.117Z,17.37
2023-04-06T16:45:09.727Z,18.27
2023-04-06T16:47:37.712Z,17.27
2023-04-06T16:50:07.319Z,18.00
2023-04-06T16:52:35.684Z,18.63
2023-04-06T16:55:04.069Z,20.43
2023-04-06T16:57:31.980Z,17.70
2023-04-06T17:00:00.534Z,18.07
2023-04-06T17:02:29.847Z,18.33
2023-04-06T17:04:57.790Z,20.63
2023-04-06T17:07:31.590Z,19.40
2023-04-06T17:10:01.132Z,18.80
2023-04-06T17:12:29.187Z,17.13
2023-04-06T17:14:57.254Z,19.43
2023-04-06T17:17:25.127Z,19.37
2023-04-06T17:19:54.747Z,19.03
2023-04-06T17:22:22.607Z,20.77
2023-04-06T17:24:50.595Z,20.43
2023-04-06T17:27:18.884Z,21.77
2023-04-06T17:29:46.758Z,19.53
2023-04-06T17:32:14.547Z,19.03
2023-04-06T17:34:42.364Z,20.80
2023-04-06T17:37:11.562Z,22.00
2023-04-06T17:39:39.278Z,21.93
2023-04-06T17:42:08.396Z,24.80
2023-04-06T17:44:36.284Z,24.27
2023-04-06T17:47:04.169Z,26.80
2023-04-06T17:49:32.026Z,31.40
2023-04-06T17:51:59.902Z,32.63
2023-04-06T17:54:29.186Z,30.73
2023-04-06T17:56:57.330Z,36.03
2023-04-06T17:59:25.535Z,38.77
2023-04-06T18:01:53.357Z,44.63
2023-04-06T18:04:21.284Z,42.80
2023-04-06T18:06:49.393Z,47.67
2023-04-06T18:09:17.606Z,53.43
2023-04-06T18:11:46.826Z,51.07
2023-04-06T18:14:16.117Z,51.90
2023-04-06T18:16:47.986Z,48.13
2023-04-06T18:19:16.272Z,46.70
2023-04-06T18:21:44.207Z,52.93
2023-04-06T18:24:18.809Z,59.33
2023-04-06T18:26:52.533Z,59.13
2023-04-06T18:29:20.310Z,64.37
2023-04-06T18:31:50.635Z,58.40
2023-04-06T18:34:18.445Z,56.47
2023-04-06T18:36:46.200Z,55.77
2023-04-06T18:39:14.201Z,58.93
2023-04-06T18:41:43.065Z,61.33
2023-04-06T18:44:12.185Z,59.83
2023-04-06T18:46:40.119Z,63.67
2023-04-06T18:49:07.919Z,56.40
2023-04-06T18:51:35.938Z,63.80
2023-04-06T18:54:04.092Z,68.03
2023-04-06T18:56:31.989Z,63.77
2023-04-06T18:58:59.814Z,71.17
2023-04-06T19:01:31.085Z,68.57
2023-04-06T19:04:00.412Z,65.23
2023-04-06T19:06:28.736Z,76.93
2023-04-06T19:08:56.883Z,68.00
2023-04-06T19:11:25.188Z,69.33
2023-04-06T19:13:54.051Z,60.00
2023-04-06T19:16:22.707Z,59.63
2023-04-06T19:18:51.951Z,50.10
2023-04-06T19:21:22.304Z,57.57
2023-04-06T19:23:57.249Z,58.53
2023-04-06T19:26:30.272Z,51.33
2023-04-06T19:28:58.103Z,49.07
2023-04-06T19:31:27.704Z,61.37
2023-04-06T19:33:57.348Z,50.57
2023-04-06T19:36:27.031Z,53.77
2023-04-06T19:38:55.361Z,72.70
2023-04-06T19:41:24.023Z,53.33
2023-04-06T19:43:51.818Z,49.17
2023-04-06T19:46:21.342Z,51.60
2023-04-06T19:48:49.358Z,53.37
2023-04-06T19:51:18.545Z,33.00
2023-04-06T19:53:46.584Z,41.00
2023-04-06T19:56:16.069Z,49.37
2023-04-06T19:58:44.076Z,57.17
2023-04-06T20:01:11.975Z,52.80
2023-04-06T20:03:40.908Z,45.10
2023-04-06T20:06:09.098Z,43.30
2023-04-06T20:08:38.334Z,60.83
2023-04-06T20:11:09.625Z,51.77
2023-04-06T20:13:37.897Z,46.93
2023-04-06T20:16:06.183Z,51.53
2023-04-06T20:18:34.502Z,53.43
2023-04-06T20:21:02.547Z,46.30
2023-04-06T20:23:30.379Z,40.43
2023-04-06T20:25:59.663Z,48.13
2023-04-06T20:28:28.445Z,51.57
2023-04-06T20:30:56.286Z,42.60
2023-04-06T20:33:24.176Z,54.20
2023-04-06T20:35:57.360Z,60.63
2023-04-06T20:38:33.189Z,55.37
2023-04-06T20:41:02.999Z,54.73
2023-04-06T20:44:15.257Z,51.63
2023-04-06T20:46:19.806Z,52.67
2023-04-06T20:48:47.747Z,46.57
2023-04-06T20:51:20.642Z,43.83
2023-04-06T20:53:48.962Z,47.63
2023-04-06T20:56:18.432Z,60.63
2023-04-06T20:58:46.530Z,38.57
2023-04-06T21:01:16.181Z,53.77
2023-04-06T21:03:44.747Z,58.37
2023-04-06T21:06:12.808Z,58.10
2023-04-06T21:08:40.909Z,58.47
2023-04-06T21:11:08.809Z,35.27
2023-04-06T21:13:38.301Z,61.47
2023-04-06T21:16:07.100Z,62.27
2023-04-06T21:18:35.030Z,51.37
2023-04-06T21:21:02.943Z,51.40
2023-04-06T21:23:30.979Z,70.17
2023-04-06T21:25:59.364Z,31.03
2023-04-06T21:28:48.697Z,64.97
2023-04-06T21:31:16.693Z,73.77
2023-04-06T21:33:44.601Z,61.80
2023-04-06T21:36:12.657Z,51.37
2023-04-06T21:38:40.493Z,63.17
2023-04-06T21:41:08.327Z,63.33
2023-04-06T21:43:36.262Z,42.50
2023-04-06T21:46:05.712Z,61.87
2023-04-06T21:48:33.468Z,60.43
2023-04-06T21:51:01.606Z,72.87
2023-04-06T21:53:29.348Z,67.23
2023-04-06T21:55:57.319Z,71.67
2023-04-06T21:58:25.321Z,60.20
2023-04-06T22:00:53.251Z,53.50
2023-04-06T22:03:22.523Z,69.33
2023-04-06T22:05:50.952Z,57.93
2023-04-06T22:08:32.576Z,66.00
2023-04-06T22:11:08.669Z,66.63
2023-04-06T22:13:37.330Z,61.83
2023-04-06T22:16:06.594Z,76.33
2023-04-06T22:18:38.662Z,93.90
2023-04-06T22:21:08.668Z,74.00
2023-04-06T22:23:41.879Z,75.63
2023-04-06T22:26:10.872Z,62.77
2023-04-06T22:28:38.753Z,81.63
2023-04-06T22:31:06.589Z,71.10
2023-04-06T22:33:35.807Z,76.00
2023-04-06T22:36:04.228Z,88.37
2023-04-06T22:38:31.987Z,77.77
2023-04-06T22:40:59.812Z,65.60
2023-04-06T22:43:27.583Z,42.20
2023-04-06T22:45:55.669Z,62.00
2023-04-06T22:48:23.548Z,67.20
2023-04-06T22:50:52.904Z,74.27
2023-04-06T22:53:20.801Z,77.43
2023-04-06T22:55:48.644Z,76.73
2023-04-06T22:58:16.553Z,68.97
2023-04-06T23:00:44.335Z,66.13
2023-04-06T23:03:12.216Z,68.27
2023-04-06T23:05:40.382Z,78.00
2023-04-06T23:08:09.581Z,51.17
2023-04-06T23:10:41.754Z,57.17
2023-04-06T23:13:10.508Z,50.67
2023-04-06T23:15:38.274Z,65.63
2023-04-06T23:18:06.275Z,49.83
2023-04-06T23:20:34.183Z,67.87
2023-04-06T23:23:01.993Z,66.77
2023-04-06T23:25:31.356Z,54.43
2023-04-06T23:27:59.369Z,29.40
2023-04-06T23:30:27.324Z,51.50
2023-04-06T23:32:55.353Z,58.67
2023-04-06T23:35:23.167Z,56.63
2023-04-06T23:37:51.010Z,50.67
2023-04-06T23:40:19.205Z,38.70
2023-04-06T23:42:48.502Z,52.53
2023-04-06T23:45:16.570Z,35.23
2023-04-06T23:47:45.851Z,40.83
2023-04-06T23:50:13.757Z,44.70
2023-04-06T23:52:41.737Z,37.53
2023-04-06T23:55:10.225Z,46.17
2023-04-06T23:57:38.175Z,52.03
